createdAt,value
2018-11-12T00:00:12.604Z,46.22
2018-11-12T00:06:07.571Z,45.14
2018-11-12T00:12:02.589Z,48.02
2018-11-12T00:17:57.599Z,22.6
2018-11-12T00:23:52.589Z,44.4
2018-11-12T00:29:47.617Z,40.02
2018-11-12T00:35:42.612Z,34.87
2018-11-12T00:41:37.598Z,37.19
2018-11-12T00:47:32.663Z,29.74
2018-11-12T00:53:27.598Z,31.73
2018-11-12T00:59:22.591Z,36.1
2018-11-12T01:05:17.638Z,27.76
2018-11-12T01:11:12.668Z,25.35
2018-11-12T01:17:07.616Z,28.11
2018-11-12T01:23:02.634Z,34.72
2018-11-12T01:28:57.608Z,31.38
2018-11-12T01:34:52.625Z,34.09
2018-11-12T01:40:47.636Z,37.46
2018-11-12T01:46:42.646Z,32.77
2018-11-12T01:52:37.649Z,33.92
2018-11-12T01:58:32.602Z,36.74
2018-11-12T02:04:27.638Z,45.08
2018-11-12T02:10:22.618Z,41.11
2018-11-12T02:16:17.624Z,44.15
2018-11-12T02:22:12.674Z,32.25
2018-11-12T02:28:07.613Z,34.92
2018-11-12T02:34:02.687Z,44.89
2018-11-12T02:39:57.610Z,52.18
2018-11-12T02:45:52.626Z,41.77
2018-11-12T02:51:47.634Z,42.18
2018-11-12T02:57:42.643Z,45.98
2018-11-12T03:03:37.626Z,41.16
2018-11-12T03:09:32.624Z,46.14
2018-11-12T03:15:27.629Z,32.3
2018-11-12T03:21:22.642Z,38
2018-11-12T03:27:17.656Z,42.27
2018-11-12T03:33:12.684Z,47.73
2018-11-12T03:39:07.640Z,40.97
2018-11-12T03:45:02.670Z,32.55
2018-11-12T03:50:57.664Z,52.23
2018-11-12T03:56:52.644Z,36.41
2018-11-12T04:02:47.635Z,44.62
2018-11-12T04:08:42.656Z,36.69
2018-11-12T04:14:37.649Z,33.71
2018-11-12T04:20:32.648Z,40.25
2018-11-12T04:26:27.649Z,42.34
2018-11-12T04:32:22.696Z,39.43
2018-11-12T04:38:17.657Z,34.55
2018-11-12T04:44:12.646Z,35.59
2018-11-12T04:50:07.674Z,33.16
2018-11-12T04:56:02.656Z,33.81
2018-11-12T05:01:57.682Z,37.4
2018-11-12T05:07:52.705Z,27.02
2018-11-12T05:13:47.679Z,34.05
2018-11-12T05:19:42.673Z,35.63
2018-11-12T05:25:37.669Z,35.43
2018-11-12T05:31:32.669Z,42.65
2018-11-12T05:37:27.662Z,37.85
2018-11-12T05:43:22.734Z,34.14
2018-11-12T05:49:17.685Z,37.95
2018-11-12T05:55:12.655Z,30.56
2018-11-12T06:01:07.667Z,36.36
2018-11-12T06:07:02.666Z,44.02
2018-11-12T06:12:57.678Z,33.61
2018-11-12T06:18:52.718Z,36.39
2018-11-12T06:24:47.667Z,39.4
2018-11-12T06:30:42.687Z,31.57
2018-11-12T06:36:37.726Z,33.52
2018-11-12T06:42:32.784Z,31.64
2018-11-12T06:48:27.674Z,55.3
2018-11-12T06:54:22.738Z,53.82
2018-11-12T07:00:17.706Z,43.56
2018-11-12T07:06:12.723Z,36.24
2018-11-12T07:12:07.741Z,37.87
2018-11-12T07:18:02.686Z,47.59
2018-11-12T07:23:57.732Z,36.07
2018-11-12T07:29:52.740Z,37.47
2018-11-12T07:35:47.757Z,37.36
2018-11-12T07:41:42.712Z,40.1
2018-11-12T07:47:37.751Z,46.18
2018-11-12T07:53:32.705Z,44.27
2018-11-12T07:59:27.717Z,46.7
2018-11-12T08:05:22.728Z,49.43
2018-11-12T08:11:17.718Z,46.27
2018-11-12T08:17:12.712Z,46.72
2018-11-12T08:23:07.767Z,48.69
2018-11-12T08:29:02.751Z,55.55
2018-11-12T08:34:57.737Z,56.82
2018-11-12T08:40:52.959Z,70.42
2018-11-12T08:46:47.723Z,64.55
2018-11-12T08:52:42.719Z,62.29
2018-11-12T08:58:37.743Z,61.63
2018-11-12T09:04:32.709Z,57.22
2018-11-12T09:10:27.839Z,55.63
2018-11-12T09:16:22.764Z,50.17
2018-11-12T09:22:17.781Z,47.8
2018-11-12T09:28:12.792Z,43.64
2018-11-12T09:34:07.764Z,47.63
2018-11-12T09:40:02.777Z,54.14
2018-11-12T09:45:57.779Z,62.28
2018-11-12T09:51:52.766Z,57.6
2018-11-12T09:57:47.802Z,60.64
2018-11-12T10:03:44.013Z,75.07
2018-11-12T10:09:39.876Z,66.07
2018-11-12T10:15:35.919Z,68.4
2018-11-12T10:21:27.783Z,59.59
2018-11-12T10:27:22.821Z,67.93
2018-11-12T10:33:17.812Z,74.32
2018-11-12T10:39:12.821Z,74.86
2018-11-12T10:45:07.791Z,73.91
2018-11-12T10:51:05.170Z,69.9
2018-11-12T10:56:57.777Z,67.02
2018-11-12T11:02:52.839Z,63.25
2018-11-12T11:08:47.783Z,66.03
2018-11-12T11:14:42.834Z,59.43
2018-11-12T11:20:37.836Z,62.84
2018-11-12T11:26:32.822Z,65.62
2018-11-12T11:32:27.794Z,77.63
2018-11-12T11:38:22.777Z,57.43
2018-11-12T11:44:17.803Z,70.47
2018-11-12T11:50:12.874Z,60.54
2018-11-12T11:56:07.796Z,68.39
2018-11-12T12:02:02.830Z,66.11
2018-11-12T12:07:57.817Z,49.9
2018-11-12T12:13:52.891Z,50.78
2018-11-12T12:19:47.788Z,50.74
2018-11-12T12:25:42.921Z,53.07
2018-11-12T12:31:37.833Z,44.76
2018-11-12T12:37:32.872Z,53.97
2018-11-12T12:43:27.856Z,44.88
2018-11-12T12:49:22.886Z,53.15
2018-11-12T12:55:17.907Z,42.44
2018-11-12T13:01:12.798Z,45.26
2018-11-12T13:07:07.793Z,41.65
2018-11-12T13:13:02.811Z,42.7
2018-11-12T13:18:57.797Z,46.09
2018-11-12T13:24:52.839Z,50.47
2018-11-12T13:30:47.819Z,51.23
2018-11-12T13:36:42.780Z,62.94
2018-11-12T13:42:37.873Z,60.83
2018-11-12T13:48:32.780Z,49.49
2018-11-12T13:54:27.781Z,46.94
2018-11-12T14:00:22.848Z,42.15
2018-11-12T14:06:17.829Z,54.85
2018-11-12T14:12:12.802Z,61.46
2018-11-12T14:18:07.791Z,64.67
2018-11-12T14:24:02.796Z,51.46
2018-11-12T14:29:57.797Z,47.15
2018-11-12T14:35:52.876Z,57.02
2018-11-12T14:41:47.828Z,53.31
2018-11-12T14:47:42.811Z,52.36
2018-11-12T14:53:37.891Z,52.05
2018-11-12T14:59:32.802Z,49.74
2018-11-12T15:05:27.809Z,48.32
2018-11-12T15:11:22.809Z,46.57
2018-11-12T15:17:17.811Z,51.08
2018-11-12T15:23:12.813Z,42.96
2018-11-12T15:29:07.849Z,53.92
2018-11-12T15:35:02.828Z,47.44
2018-11-12T15:40:57.821Z,48.11
2018-11-12T15:46:52.874Z,49.67
2018-11-12T15:52:47.808Z,46.48
2018-11-12T15:58:42.815Z,47.84
2018-11-12T16:04:37.830Z,47.54
2018-11-12T16:10:32.826Z,62.55
2018-11-12T16:16:27.830Z,66.45
2018-11-12T16:22:22.879Z,63.13
2018-11-12T16:28:17.871Z,61.41
2018-11-12T16:34:12.862Z,54.98
2018-11-12T16:40:07.869Z,55.96
2018-11-12T16:46:02.906Z,57.7
2018-11-12T16:51:57.843Z,62.37
2018-11-12T16:57:52.848Z,40.76
2018-11-12T17:03:47.922Z,33.09
2018-11-12T17:09:42.851Z,33.01
2018-11-12T17:15:37.873Z,28.42
2018-11-12T17:21:32.959Z,24.21
2018-11-12T17:27:27.839Z,22
2018-11-12T17:33:22.871Z,21.27
2018-11-12T17:39:17.867Z,25.18
2018-11-12T17:45:12.898Z,20.48
2018-11-12T17:51:07.868Z,21.87
2018-11-12T17:57:02.868Z,17.16
2018-11-12T18:02:57.854Z,10.75
2018-11-12T18:08:52.867Z,13.72
2018-11-12T18:14:47.878Z,18.16
2018-11-12T18:20:42.914Z,22.15
2018-11-12T18:26:37.903Z,24.66
2018-11-12T18:32:32.896Z,17.7
2018-11-12T18:38:27.907Z,19.77
2018-11-12T18:44:22.863Z,18.21
2018-11-12T18:50:17.872Z,31.37
2018-11-12T18:56:12.889Z,29.05
2018-11-12T19:02:07.948Z,28.43
2018-11-12T19:08:02.867Z,36.41
2018-11-12T19:13:57.873Z,31.51
2018-11-12T19:19:52.902Z,39.84
2018-11-12T19:25:47.900Z,38.46
2018-11-12T19:31:42.924Z,37.3
2018-11-12T19:37:37.890Z,25.73
2018-11-12T19:43:32.888Z,25.4
2018-11-12T19:49:27.896Z,40.75
2018-11-12T19:55:22.955Z,18.88
2018-11-12T20:01:17.897Z,22.93
2018-11-12T20:07:12.902Z,26.83
2018-11-12T20:13:07.895Z,31.79
2018-11-12T20:19:02.908Z,20.18
2018-11-12T20:24:57.988Z,15.85
2018-11-12T20:30:52.939Z,18.71
2018-11-12T20:36:47.897Z,30.76
2018-11-12T20:42:42.925Z,35.81
2018-11-12T20:48:37.918Z,41.58
2018-11-12T20:54:32.939Z,39.31
2018-11-12T21:00:27.911Z,39.48
2018-11-12T21:06:22.898Z,46.81
2018-11-12T21:12:17.914Z,45.97
2018-11-12T21:18:12.919Z,44.95
2018-11-12T21:24:07.901Z,43.1
2018-11-12T21:30:02.919Z,38.54
2018-11-12T21:35:57.911Z,45.6
2018-11-12T21:41:52.934Z,42.52
2018-11-12T21:47:47.911Z,42.09
2018-11-12T21:53:42.927Z,78.29
2018-11-12T21:59:37.996Z,63.67
2018-11-12T22:05:32.964Z,60.87
2018-11-12T22:11:27.930Z,50.26
2018-11-12T22:17:22.930Z,46.18
2018-11-12T22:23:17.923Z,53.22
2018-11-12T22:29:12.930Z,70.62
2018-11-12T22:35:07.972Z,44.01
2018-11-12T22:41:03.005Z,55.45
2018-11-12T22:46:57.981Z,47.81
2018-11-12T22:52:52.942Z,47.48
2018-11-12T22:58:47.932Z,48.47
2018-11-12T23:04:42.936Z,54.27
2018-11-12T23:10:37.961Z,54.23
2018-11-12T23:16:32.942Z,46.99
2018-11-12T23:22:27.930Z,43.36
2018-11-12T23:28:22.949Z,45.71
2018-11-12T23:34:17.922Z,45.74
2018-11-12T23:40:12.944Z,47.97
2018-11-12T23:46:07.944Z,49.9
2018-11-12T23:52:02.982Z,50.32
2018-11-12T23:57:57.952Z,53.66
